createdAt,value
2018-04-15T00:01:59.860Z,20.17
2018-04-15T00:04:27.687Z,20.95
2018-04-15T00:06:55.483Z,21.58
2018-04-15T00:09:23.259Z,23.70
2018-04-15T00:11:51.109Z,22.35
2018-04-15T00:14:18.887Z,24.87
2018-04-15T00:16:46.656Z,22.50
2018-04-15T00:19:14.488Z,22.77
2018-04-15T00:21:43.023Z,24.30
2018-04-15T00:24:10.791Z,24.95
2018-04-15T00:26:38.611Z,26.52
2018-04-15T00:29:06.388Z,26.87
2018-04-15T00:31:34.175Z,24.90
2018-04-15T00:34:02.011Z,24.67
2018-04-15T00:36:29.782Z,23.27
2018-04-15T00:38:57.580Z,23.58
2018-04-15T00:41:25.403Z,22.73
2018-04-15T00:43:53.188Z,24.37
2018-04-15T00:46:20.957Z,23.65
2018-04-15T00:48:48.790Z,23.85
2018-04-15T00:51:16.555Z,23.92
2018-04-15T00:53:56.248Z,26.10
2018-04-15T00:56:24.783Z,21.87
2018-04-15T00:58:53.333Z,25.88
2018-04-15T01:01:21.204Z,24.75
2018-04-15T01:03:48.980Z,23.83
2018-04-15T01:06:16.744Z,24.80
2018-04-15T01:08:44.723Z,24.23
2018-04-15T01:11:13.267Z,23.35
2018-04-15T01:13:41.072Z,24.23
2018-04-15T01:16:08.911Z,23.20
2018-04-15T01:18:36.697Z,24.40
2018-04-15T01:21:04.467Z,23.25
2018-04-15T01:23:32.295Z,23.00
2018-04-15T01:26:00.069Z,25.00
2018-04-15T01:28:27.832Z,25.33
2018-04-15T01:30:55.643Z,23.58
2018-04-15T01:33:24.184Z,24.98
2018-04-15T01:35:51.967Z,22.80
2018-04-15T01:38:19.804Z,22.65
2018-04-15T01:40:47.585Z,22.17
2018-04-15T01:43:15.351Z,20.60
2018-04-15T01:45:43.192Z,21.30
2018-04-15T01:48:11.000Z,21.02
2018-04-15T01:50:39.550Z,21.10
2018-04-15T01:53:07.405Z,22.75
2018-04-15T01:55:35.168Z,21.08
2018-04-15T01:58:02.931Z,20.15
2018-04-15T02:00:30.750Z,19.95
2018-04-15T02:02:58.531Z,17.52
2018-04-15T02:05:26.292Z,20.40
2018-04-15T02:07:54.513Z,20.70
2018-04-15T02:10:22.287Z,19.73
2018-04-15T02:12:50.868Z,19.10
2018-04-15T02:15:19.455Z,22.08
2018-04-15T02:17:48.052Z,21.10
2018-04-15T02:20:16.580Z,20.70
2018-04-15T02:22:44.398Z,23.00
2018-04-15T02:25:12.173Z,21.98
2018-04-15T02:27:39.951Z,22.00
2018-04-15T02:30:07.782Z,21.17
2018-04-15T02:32:35.549Z,19.75
2018-04-15T02:35:03.356Z,19.62
2018-04-15T02:37:31.180Z,20.25
2018-04-15T02:39:58.975Z,21.83
2018-04-15T02:42:27.277Z,20.00
2018-04-15T02:44:55.104Z,20.67
2018-04-15T02:47:22.871Z,21.25
2018-04-15T02:49:50.643Z,21.52
2018-04-15T02:52:18.472Z,20.50
2018-04-15T02:54:46.234Z,19.75
2018-04-15T02:57:14.000Z,20.77
2018-04-15T02:59:41.810Z,19.58
2018-04-15T03:02:09.587Z,19.23
2018-04-15T03:04:38.168Z,21.23
2018-04-15T03:07:06.748Z,20.12
2018-04-15T03:09:34.538Z,20.40
2018-04-15T03:12:02.345Z,19.23
2018-04-15T03:14:30.184Z,19.50
2018-04-15T03:16:57.961Z,19.05
2018-04-15T03:19:25.723Z,18.75
2018-04-15T03:21:53.533Z,17.33
2018-04-15T03:24:22.065Z,17.98
2018-04-15T03:26:49.831Z,17.70
2018-04-15T03:29:17.644Z,18.65
2018-04-15T03:31:46.169Z,16.52
2018-04-15T03:34:13.923Z,19.40
2018-04-15T03:36:41.731Z,17.55
2018-04-15T03:39:09.498Z,17.12
2018-04-15T03:41:38.041Z,18.55
2018-04-15T03:44:05.880Z,18.87
2018-04-15T03:46:33.665Z,18.35
2018-04-15T03:49:01.451Z,17.75
2018-04-15T03:51:29.288Z,15.45
2018-04-15T03:53:57.047Z,15.88
2018-04-15T03:56:24.804Z,15.38
2018-04-15T03:58:52.628Z,16.75
2018-04-15T04:01:21.251Z,16.10
2018-04-15T04:03:49.028Z,16.15
2018-04-15T04:06:16.840Z,15.88
2018-04-15T04:08:44.620Z,16.17
2018-04-15T04:11:12.384Z,15.82
2018-04-15T04:13:40.217Z,15.27
2018-04-15T04:16:08.749Z,15.73
2018-04-15T04:18:48.515Z,15.43
2018-04-15T04:34:49.089Z,17.45
2018-04-15T04:37:16.864Z,16.58
2018-04-15T04:39:44.634Z,18.67
2018-04-15T04:42:12.455Z,18.83
2018-04-15T04:44:40.225Z,19.52
2018-04-15T04:47:07.983Z,17.92
2018-04-15T04:49:35.797Z,16.30
2018-04-15T04:52:03.573Z,16.58
2018-04-15T04:54:32.100Z,16.12
2018-04-15T04:56:59.924Z,19.55
2018-04-15T04:59:28.462Z,17.60
2018-04-15T05:01:56.249Z,18.37
2018-04-15T05:04:24.320Z,17.27
2018-04-15T05:06:52.095Z,17.52
2018-04-15T05:09:20.769Z,17.65
2018-04-15T05:11:50.125Z,17.73
2018-04-15T05:14:17.909Z,18.30
2018-04-15T05:16:45.678Z,18.45
2018-04-15T05:19:13.665Z,19.92
2018-04-15T05:21:42.204Z,19.60
2018-04-15T05:24:10.010Z,18.42
2018-04-15T05:26:38.704Z,17.67
2018-04-15T05:29:06.495Z,17.83
2018-04-15T05:31:34.261Z,17.90
2018-04-15T05:34:02.084Z,18.37
2018-04-15T05:36:30.711Z,18.90
2018-04-15T05:38:58.471Z,19.60
2018-04-15T05:41:26.300Z,21.73
2018-04-15T05:43:54.832Z,18.75
2018-04-15T05:46:22.597Z,20.92
2018-04-15T05:48:50.420Z,19.67
2018-04-15T05:51:18.193Z,19.55
2018-04-15T05:53:45.957Z,20.23
2018-04-15T05:56:13.784Z,18.05
2018-04-15T05:58:42.358Z,20.12
2018-04-15T06:01:10.133Z,18.17
2018-04-15T06:03:38.720Z,18.30
2018-04-15T06:06:06.492Z,20.30
2018-04-15T06:08:34.255Z,20.77
2018-04-15T06:11:02.107Z,20.25
2018-04-15T06:13:29.901Z,21.30
2018-04-15T06:15:57.685Z,21.17
2018-04-15T06:18:25.516Z,19.02
2018-04-15T06:20:53.298Z,20.60
2018-04-15T06:23:21.072Z,18.90
2018-04-15T06:25:48.894Z,19.23
2018-04-15T06:28:16.675Z,21.27
2018-04-15T06:30:44.469Z,22.77
2018-04-15T06:33:12.330Z,18.75
2018-04-15T06:35:40.105Z,20.05
2018-04-15T06:38:07.897Z,19.65
2018-04-15T06:40:36.045Z,17.92
2018-04-15T06:43:04.594Z,19.48
2018-04-15T06:45:33.171Z,20.98
2018-04-15T06:48:01.041Z,20.23
2018-04-15T06:50:28.811Z,22.52
2018-04-15T06:52:56.585Z,20.02
2018-04-15T06:55:24.453Z,21.42
2018-04-15T06:57:53.007Z,18.87
2018-04-15T07:00:20.800Z,18.83
2018-04-15T07:02:49.403Z,20.37
2018-04-15T07:05:17.178Z,19.12
2018-04-15T07:07:44.959Z,19.27
2018-04-15T07:10:12.806Z,18.58
2018-04-15T07:12:40.617Z,21.17
2018-04-15T07:15:08.437Z,21.75
2018-04-15T07:17:36.278Z,18.67
2018-04-15T07:20:04.090Z,20.20
2018-04-15T07:22:31.885Z,18.80
2018-04-15T07:25:00.480Z,17.95
2018-04-15T07:27:29.011Z,15.48
2018-04-15T07:29:56.776Z,17.52
2018-04-15T07:32:24.606Z,16.27
2018-04-15T07:34:52.385Z,16.30
2018-04-15T07:37:20.186Z,15.63
2018-04-15T07:39:48.035Z,16.12
2018-04-15T07:42:15.867Z,16.42
2018-04-15T07:44:43.636Z,15.25
2018-04-15T07:47:11.500Z,15.30
2018-04-15T07:49:39.276Z,13.95
2018-04-15T07:52:07.060Z,14.75
2018-04-15T07:54:34.895Z,14.40
2018-04-15T07:57:02.677Z,12.60
2018-04-15T07:59:30.455Z,13.13
2018-04-15T08:01:58.284Z,14.38
2018-04-15T08:04:26.828Z,16.05
2018-04-15T08:06:54.619Z,14.35
2018-04-15T08:09:23.224Z,14.38
2018-04-15T08:11:51.009Z,13.45
2018-04-15T08:14:19.563Z,14.50
2018-04-15T08:16:47.428Z,13.10
2018-04-15T08:19:15.277Z,14.43
2018-04-15T08:21:43.133Z,13.68
2018-04-15T08:24:10.985Z,15.02
2018-04-15T08:26:38.781Z,14.18
2018-04-15T08:29:06.583Z,12.73
2018-04-15T08:31:35.187Z,13.52
2018-04-15T08:34:02.973Z,13.45
2018-04-15T08:36:30.769Z,13.27
2018-04-15T08:38:58.666Z,13.90
2018-04-15T08:41:26.487Z,12.52
2018-04-15T08:43:55.081Z,12.52
2018-04-15T08:46:22.970Z,12.60
2018-04-15T08:48:50.775Z,13.57
2018-04-15T08:51:18.574Z,13.07
2018-04-15T08:53:46.435Z,12.40
2018-04-15T08:56:14.273Z,11.48
2018-04-15T08:58:42.093Z,10.98
2018-04-15T09:01:09.943Z,11.15
2018-04-15T09:03:37.743Z,10.98
2018-04-15T09:06:05.549Z,11.07
2018-04-15T09:08:33.438Z,11.38
2018-04-15T09:11:01.224Z,10.77
2018-04-15T09:13:29.018Z,10.48
2018-04-15T09:15:56.868Z,10.48
2018-04-15T09:18:24.644Z,10.30
2018-04-15T09:20:52.442Z,10.60
2018-04-15T09:23:21.102Z,10.18
2018-04-15T09:25:48.947Z,8.60
2018-04-15T09:28:16.751Z,11.05
2018-04-15T09:30:50.266Z,8.95
2018-04-15T09:33:18.501Z,8.48
2018-04-15T09:35:46.296Z,8.40
2018-04-15T09:38:14.162Z,8.90
2018-04-15T09:40:41.950Z,8.50
2018-04-15T09:43:09.753Z,8.85
2018-04-15T09:45:38.367Z,8.18
2018-04-15T09:48:06.167Z,8.05
2018-04-15T09:50:33.967Z,7.68
2018-04-15T09:53:02.565Z,7.32
2018-04-15T09:55:31.139Z,7.65
2018-04-15T09:57:59.703Z,9.00
2018-04-15T10:00:27.537Z,7.40
2018-04-15T10:02:55.312Z,6.50
2018-04-15T10:05:23.109Z,7.15
2018-04-15T10:07:50.969Z,7.53
2018-04-15T10:10:19.509Z,7.00
2018-04-15T10:12:47.372Z,8.23
2018-04-15T10:15:15.237Z,6.45
2018-04-15T10:17:43.014Z,7.68
2018-04-15T10:20:10.815Z,5.90
2018-04-15T10:22:38.656Z,6.82
2018-04-15T10:25:07.225Z,5.50
2018-04-15T10:27:35.043Z,6.32
2018-04-15T10:30:02.976Z,6.28
2018-04-15T10:32:31.525Z,5.65
2018-04-15T10:34:59.317Z,4.95
2018-04-15T10:37:27.918Z,5.05
2018-04-15T10:39:55.748Z,6.00
2018-04-15T10:42:24.335Z,5.32
2018-04-15T10:44:52.963Z,4.15
2018-04-15T10:47:21.532Z,4.75
2018-04-15T10:49:49.308Z,4.68
2018-04-15T10:52:17.144Z,4.65
2018-04-15T10:54:45.688Z,4.80
2018-04-15T10:57:13.471Z,5.05
2018-04-15T10:59:42.072Z,4.55
2018-04-15T11:02:09.863Z,4.80
2018-04-15T11:04:37.671Z,5.10
2018-04-15T11:07:06.298Z,4.50
2018-04-15T11:09:34.895Z,4.78
2018-04-15T11:12:02.722Z,4.93
2018-04-15T11:14:30.561Z,4.18
2018-04-15T11:16:59.160Z,9.85
2018-04-15T11:19:27.700Z,6.85
2018-04-15T11:21:55.544Z,4.40
2018-04-15T11:24:23.343Z,4.65
2018-04-15T11:26:51.910Z,4.28
2018-04-15T11:29:19.777Z,4.70
2018-04-15T11:31:47.578Z,4.15
2018-04-15T11:34:15.365Z,4.47
2018-04-15T11:36:43.212Z,4.53
2018-04-15T11:39:11.016Z,4.10
2018-04-15T11:41:38.779Z,4.87
2018-04-15T11:44:06.614Z,5.70
2018-04-15T11:46:34.428Z,5.60
2018-04-15T11:49:02.208Z,4.30
2018-04-15T11:51:30.062Z,4.43
2018-04-15T11:53:58.615Z,6.32
2018-04-15T11:56:26.405Z,4.87
2018-04-15T11:58:55.014Z,5.37
2018-04-15T12:01:22.797Z,6.00
2018-04-15T12:03:50.613Z,5.10
2018-04-15T12:06:18.481Z,5.47
2018-04-15T12:08:47.022Z,7.18
2018-04-15T12:11:14.828Z,5.30
2018-04-15T12:13:42.746Z,5.03
2018-04-15T12:16:10.543Z,5.28
2018-04-15T12:18:38.335Z,5.62
2018-04-15T12:21:06.205Z,6.35
2018-04-15T12:23:34.000Z,5.20
2018-04-15T12:26:01.783Z,4.87
2018-04-15T12:28:29.664Z,5.82
2018-04-15T12:30:58.291Z,6.15
2018-04-15T12:33:26.152Z,5.37
2018-04-15T12:35:54.068Z,5.00
2018-04-15T12:38:22.630Z,4.90
2018-04-15T12:40:50.402Z,5.53
2018-04-15T12:43:18.242Z,6.72
2018-04-15T12:45:46.013Z,5.43
2018-04-15T12:48:13.808Z,4.78
2018-04-15T12:50:42.420Z,5.87
2018-04-15T12:53:10.249Z,5.53
2018-04-15T12:55:38.050Z,6.22
2018-04-15T12:58:05.891Z,5.72
2018-04-15T13:00:34.440Z,5.50
2018-04-15T13:03:02.236Z,6.30
2018-04-15T13:05:30.084Z,5.45
2018-04-15T13:07:58.642Z,6.47
2018-04-15T13:10:26.474Z,6.65
2018-04-15T13:12:54.310Z,6.37
2018-04-15T13:15:22.133Z,6.22
2018-04-15T13:17:49.946Z,5.40
2018-04-15T13:20:17.816Z,5.43
2018-04-15T13:22:45.641Z,6.87
2018-04-15T13:25:13.503Z,6.20
2018-04-15T13:27:42.125Z,6.20
2018-04-15T13:30:09.943Z,5.53
2018-04-15T13:32:37.770Z,5.95
2018-04-15T13:35:05.629Z,5.00
2018-04-15T13:37:33.417Z,6.12
2018-04-15T13:40:01.193Z,6.87
2018-04-15T13:42:29.028Z,5.75
2018-04-15T13:44:56.809Z,5.70
2018-04-15T13:47:24.587Z,7.18
2018-04-15T13:49:52.473Z,5.20
2018-04-15T13:52:20.310Z,7.07
2018-04-15T13:54:48.082Z,5.60
2018-04-15T13:57:15.941Z,6.53
2018-04-15T13:59:44.493Z,5.50
2018-04-15T14:02:12.291Z,6.22
2018-04-15T14:04:40.923Z,6.40
2018-04-15T14:07:08.696Z,5.85
2018-04-15T14:09:36.503Z,6.10
2018-04-15T14:12:05.109Z,6.62
2018-04-15T14:14:32.922Z,5.62
2018-04-15T14:17:00.741Z,5.93
2018-04-15T14:19:28.568Z,6.40
2018-04-15T14:21:57.161Z,5.05
2018-04-15T14:24:24.960Z,6.15
2018-04-15T14:26:52.831Z,5.53
2018-04-15T14:29:20.616Z,6.10
2018-04-15T14:31:48.412Z,6.95
2018-04-15T14:34:17.117Z,7.03
2018-04-15T14:36:44.958Z,6.20
2018-04-15T14:39:13.547Z,6.80
2018-04-15T14:41:41.420Z,6.40
2018-04-15T14:44:09.210Z,6.55
2018-04-15T14:46:37.003Z,5.95
2018-04-15T14:49:05.630Z,6.28
2018-04-15T14:51:33.403Z,6.12
2018-04-15T14:54:01.183Z,5.90
2018-04-15T14:56:29.045Z,6.70
2018-04-15T14:58:56.828Z,6.07
2018-04-15T15:01:24.606Z,7.68
2018-04-15T15:03:53.240Z,6.95
2018-04-15T15:06:21.065Z,6.80
2018-04-15T15:08:49.617Z,7.45
2018-04-15T15:11:17.445Z,7.10
2018-04-15T15:13:45.268Z,7.05
2018-04-15T15:16:13.833Z,6.30
2018-04-15T15:18:41.681Z,6.47
2018-04-15T15:21:09.492Z,6.50
2018-04-15T15:23:38.879Z,6.15
2018-04-15T15:26:07.485Z,6.53
2018-04-15T15:28:35.271Z,7.15
2018-04-15T15:31:03.054Z,6.20
2018-04-15T15:33:30.895Z,6.10
2018-04-15T15:35:58.674Z,5.82
2018-04-15T15:38:26.501Z,6.90
2018-04-15T15:40:54.331Z,6.87
2018-04-15T15:43:22.897Z,6.68
2018-04-15T15:45:50.699Z,6.30
2018-04-15T15:48:18.531Z,8.30
2018-04-15T15:50:46.299Z,6.78
2018-04-15T15:53:14.103Z,6.95
2018-04-15T15:55:41.942Z,6.25
2018-04-15T15:58:10.468Z,5.70
2018-04-15T16:00:39.087Z,6.80
2018-04-15T16:03:07.712Z,7.28
2018-04-15T16:05:35.496Z,7.10
2018-04-15T16:08:03.276Z,7.57
2018-04-15T16:10:31.112Z,7.07
2018-04-15T16:12:58.925Z,6.53
2018-04-15T16:15:27.506Z,6.30
2018-04-15T16:17:56.142Z,8.02
2018-04-15T16:20:23.937Z,7.20
2018-04-15T16:22:51.753Z,15.75
2018-04-15T16:25:19.593Z,6.95
2018-04-15T16:27:47.376Z,7.07
2018-04-15T16:30:15.173Z,6.50
2018-04-15T16:32:43.826Z,6.22
2018-04-15T16:35:11.606Z,7.70
2018-04-15T16:37:39.395Z,7.57
2018-04-15T16:40:07.269Z,7.55
2018-04-15T16:42:35.843Z,7.22
2018-04-15T16:45:03.608Z,8.15
2018-04-15T16:47:31.504Z,7.40
2018-04-15T16:49:59.304Z,6.95
2018-04-15T16:52:27.101Z,7.55
2018-04-15T16:54:54.968Z,7.80
2018-04-15T16:57:23.537Z,7.60
2018-04-15T16:59:51.333Z,7.75
2018-04-15T17:02:19.851Z,7.93
2018-04-15T17:04:47.806Z,6.55
2018-04-15T17:07:15.587Z,6.97
2018-04-15T17:09:43.417Z,7.25
2018-04-15T17:12:11.189Z,7.28
2018-04-15T17:14:38.976Z,8.65
2018-04-15T17:17:06.800Z,8.35
2018-04-15T17:19:34.851Z,8.27
2018-04-15T17:22:03.692Z,8.30
2018-04-15T17:24:31.536Z,8.27
2018-04-15T17:26:59.341Z,8.45
2018-04-15T17:29:27.121Z,8.85
2018-04-15T17:31:55.720Z,8.63
2018-04-15T17:34:23.480Z,9.45
2018-04-15T17:36:54.733Z,9.07
2018-04-15T17:39:22.717Z,9.10
2018-04-15T17:41:50.488Z,7.90
2018-04-15T17:44:18.256Z,8.07
2018-04-15T17:46:46.086Z,8.10
2018-04-15T17:49:13.851Z,7.78
2018-04-15T17:51:42.361Z,7.80
2018-04-15T17:54:10.228Z,7.95
2018-04-15T17:56:38.025Z,10.70
2018-04-15T17:59:06.573Z,11.50
2018-04-15T18:01:34.402Z,12.32
2018-04-15T18:04:02.173Z,11.63
2018-04-15T18:06:29.944Z,11.68
2018-04-15T18:08:57.788Z,12.15
2018-04-15T18:11:25.569Z,11.48
2018-04-15T18:13:53.349Z,10.43
2018-04-15T18:16:21.176Z,11.40
2018-04-15T18:18:48.958Z,11.50
2018-04-15T18:21:16.785Z,11.02
2018-04-15T18:23:44.619Z,10.98
2018-04-15T18:26:12.392Z,9.57
2018-04-15T18:28:40.238Z,10.75
2018-04-15T18:31:08.104Z,10.55
2018-04-15T18:33:35.872Z,9.90
2018-04-15T18:36:04.004Z,9.55
2018-04-15T18:38:31.838Z,9.05
2018-04-15T18:40:59.631Z,8.55
2018-04-15T18:43:27.419Z,10.63
2018-04-15T18:46:17.217Z,9.55
2018-04-15T18:48:49.995Z,9.07
2018-04-15T18:51:29.423Z,9.25
2018-04-15T18:53:57.215Z,10.07
2018-04-15T18:56:25.003Z,8.95
2018-04-15T18:58:52.838Z,8.48
2018-04-15T19:01:32.282Z,10.60
2018-04-15T19:04:01.359Z,9.35
2018-04-15T19:06:29.158Z,8.05
2018-04-15T19:08:56.939Z,9.80
2018-04-15T19:11:37.471Z,8.77
2018-04-15T19:14:05.281Z,9.77
2018-04-15T19:16:39.320Z,7.43
2018-04-15T19:19:07.889Z,8.55
2018-04-15T19:21:35.681Z,10.68
2018-04-15T19:24:07.275Z,9.35
2018-04-15T19:26:45.326Z,8.63
2018-04-15T19:29:16.983Z,8.52
2018-04-15T19:31:49.637Z,9.93
2018-04-15T19:34:18.645Z,8.52
2018-04-15T19:36:47.275Z,9.02
2018-04-15T19:39:15.053Z,9.05
2018-04-15T19:41:42.899Z,9.65
2018-04-15T19:44:10.700Z,10.02
2018-04-15T19:46:39.243Z,7.07
2018-04-15T19:49:07.076Z,8.23
2018-04-15T19:51:34.881Z,7.82
2018-04-15T19:54:02.662Z,8.80
2018-04-15T19:56:42.113Z,8.23
2018-04-15T19:59:22.805Z,6.97
2018-04-15T20:01:59.546Z,8.60
2018-04-15T20:04:33.819Z,7.90
2018-04-15T20:07:03.769Z,9.32
2018-04-15T20:09:35.398Z,9.18
2018-04-15T20:12:10.582Z,8.05
2018-04-15T20:14:43.836Z,7.93
2018-04-15T20:17:19.532Z,8.65
2018-04-15T20:19:55.451Z,8.07
2018-04-15T20:22:38.185Z,8.23
2018-04-15T20:25:16.615Z,9.90
2018-04-15T20:27:44.457Z,8.60
2018-04-15T22:18:55.265Z,10.20
2018-04-15T22:21:23.020Z,10.50
2018-04-15T22:23:51.549Z,11.50
2018-04-15T22:26:19.377Z,11.20
2018-04-15T22:28:47.142Z,9.82
2018-04-15T22:31:14.902Z,10.10
2018-04-15T22:33:42.729Z,10.48
2018-04-15T22:36:10.481Z,9.65
2018-04-15T22:38:38.242Z,11.12
2018-04-15T22:41:06.080Z,9.85
2018-04-15T22:43:33.842Z,10.57
2018-04-15T22:46:01.605Z,11.02
2018-04-15T22:48:35.033Z,10.13
2018-04-15T22:51:02.796Z,9.60
2018-04-15T22:53:30.564Z,10.20
2018-04-15T22:55:59.149Z,9.95
2018-04-15T22:58:44.443Z,10.10
2018-04-15T23:01:12.264Z,10.20
2018-04-15T23:03:40.023Z,10.02
2018-04-15T23:06:07.803Z,11.50
2018-04-15T23:08:35.619Z,10.68
2018-04-15T23:11:03.383Z,9.00
2018-04-15T23:13:31.157Z,10.73
2018-04-15T23:15:59.005Z,10.07
2018-04-15T23:18:26.792Z,10.00
2018-04-15T23:20:54.555Z,9.02
2018-04-15T23:23:22.356Z,11.18
2018-04-15T23:25:50.874Z,11.45
2018-04-15T23:28:18.643Z,10.63
2018-04-15T23:30:46.465Z,10.90
2018-04-15T23:33:14.997Z,11.30
2018-04-15T23:35:42.773Z,11.50
2018-04-15T23:38:10.624Z,10.80
2018-04-15T23:40:38.409Z,10.63
2018-04-15T23:43:06.978Z,11.07
2018-04-15T23:45:34.793Z,8.38
2018-04-15T23:48:02.549Z,11.05
2018-04-15T23:50:30.318Z,10.80
2018-04-15T23:52:58.131Z,10.43
2018-04-15T23:55:25.897Z,10.80
2018-04-15T23:57:53.658Z,9.45
